createdAt,value
2024-01-11T00:00:53.645Z,38.40
2024-01-11T00:03:22.314Z,42.07
2024-01-11T00:05:51.175Z,42.67
2024-01-11T00:08:20.057Z,36.67
2024-01-11T00:10:50.273Z,43.23
2024-01-11T00:13:19.110Z,39.67
2024-01-11T00:15:48.030Z,38.33
2024-01-11T00:18:16.855Z,40.50
2024-01-11T00:20:45.688Z,37.67
2024-01-11T00:23:14.449Z,37.53
2024-01-11T00:25:43.175Z,38.10
2024-01-11T00:28:13.260Z,42.10
2024-01-11T00:30:42.125Z,42.57
2024-01-11T00:33:11.141Z,31.43
2024-01-11T00:35:39.997Z,39.77
2024-01-11T00:38:08.923Z,42.00
2024-01-11T00:40:37.848Z,38.13
2024-01-11T00:43:06.801Z,43.57
2024-01-11T00:45:37.016Z,45.53
2024-01-11T00:48:07.075Z,44.20
2024-01-11T00:50:36.045Z,44.37
2024-01-11T00:53:05.445Z,40.90
2024-01-11T00:55:34.232Z,39.70
2024-01-11T00:58:03.353Z,41.23
2024-01-11T01:00:32.174Z,38.33
2024-01-11T01:03:02.370Z,38.27
2024-01-11T01:05:31.690Z,44.10
2024-01-11T01:08:00.842Z,42.77
2024-01-11T01:10:29.736Z,42.50
2024-01-11T01:12:58.495Z,41.33
2024-01-11T01:15:27.504Z,41.00
2024-01-11T01:17:56.563Z,37.67
2024-01-11T01:20:26.977Z,43.40
2024-01-11T01:22:56.287Z,40.80
2024-01-11T01:25:25.210Z,44.80
2024-01-11T01:27:57.455Z,39.77
2024-01-11T01:30:26.285Z,40.07
2024-01-11T01:32:55.246Z,45.33
2024-01-11T01:35:24.322Z,36.90
2024-01-11T01:37:54.503Z,40.10
2024-01-11T01:40:23.300Z,43.70
2024-01-11T01:42:52.003Z,41.00
2024-01-11T01:45:20.808Z,39.30
2024-01-11T01:47:49.612Z,41.23
2024-01-11T01:50:19.328Z,35.77
2024-01-11T01:52:48.398Z,39.10
2024-01-11T01:55:18.875Z,42.23
2024-01-11T01:57:48.478Z,39.30
2024-01-11T02:00:17.502Z,41.80
2024-01-11T02:02:47.449Z,44.73
2024-01-11T02:05:16.727Z,35.30
2024-01-11T02:07:46.463Z,38.73
2024-01-11T02:10:15.194Z,48.80
2024-01-11T02:12:45.576Z,42.07
2024-01-11T02:15:14.351Z,41.07
2024-01-11T02:17:43.496Z,38.97
2024-01-11T02:20:13.303Z,38.23
2024-01-11T02:22:45.254Z,42.90
2024-01-11T02:25:15.295Z,42.97
2024-01-11T02:27:48.382Z,51.73
2024-01-11T02:30:17.887Z,40.77
2024-01-11T02:32:48.329Z,38.23
2024-01-11T02:35:18.087Z,43.77
2024-01-11T02:37:47.097Z,39.63
2024-01-11T02:40:17.285Z,41.50
2024-01-11T02:42:46.129Z,38.40
2024-01-11T02:45:14.926Z,42.00
2024-01-11T02:47:43.775Z,42.07
2024-01-11T02:50:13.758Z,40.50
2024-01-11T02:52:42.550Z,43.47
2024-01-11T02:55:11.371Z,42.17
2024-01-11T02:57:41.409Z,44.10
2024-01-11T03:00:10.724Z,43.93
2024-01-11T03:02:40.179Z,47.27
2024-01-11T03:05:09.135Z,36.30
2024-01-11T03:07:37.878Z,37.67
2024-01-11T03:10:07.499Z,42.60
2024-01-11T03:12:36.179Z,40.37
2024-01-11T03:15:06.988Z,46.37
2024-01-11T03:17:36.809Z,41.57
2024-01-11T03:20:06.890Z,36.10
2024-01-11T03:22:35.816Z,46.60
2024-01-11T03:25:05.355Z,46.87
2024-01-11T03:27:34.068Z,48.47
2024-01-11T03:30:02.793Z,40.87
2024-01-11T03:32:32.939Z,47.93
2024-01-11T03:35:01.682Z,39.83
2024-01-11T03:37:30.439Z,40.23
2024-01-11T03:39:59.040Z,39.03
2024-01-11T03:42:27.825Z,40.90
2024-01-11T03:44:56.615Z,38.80
2024-01-11T03:47:25.350Z,38.90
2024-01-11T03:49:55.534Z,48.80
2024-01-11T03:52:24.201Z,40.70
2024-01-11T03:54:52.905Z,40.67
2024-01-11T03:57:21.703Z,40.23
2024-01-11T03:59:50.350Z,51.83
2024-01-11T04:02:19.087Z,40.03
2024-01-11T04:04:47.849Z,41.00
2024-01-11T04:07:18.160Z,37.57
2024-01-11T04:09:46.899Z,46.43
2024-01-11T04:12:15.625Z,41.33
2024-01-11T04:14:44.352Z,39.43
2024-01-11T04:17:13.216Z,37.60
2024-01-11T04:19:42.076Z,41.83
2024-01-11T04:22:10.758Z,44.90
2024-01-11T04:24:40.809Z,41.33
2024-01-11T04:27:09.512Z,53.13
2024-01-11T04:29:38.249Z,44.33
2024-01-11T04:32:07.307Z,45.97
2024-01-11T04:34:36.179Z,40.70
2024-01-11T04:37:05.429Z,40.17
2024-01-11T04:39:34.181Z,46.63
2024-01-11T04:42:04.476Z,37.67
2024-01-11T04:44:33.249Z,40.77
2024-01-11T04:47:02.362Z,40.60
2024-01-11T04:49:31.147Z,46.73
2024-01-11T04:51:59.838Z,41.20
2024-01-11T04:54:28.475Z,39.03
2024-01-11T04:56:57.152Z,41.10
2024-01-11T04:59:27.414Z,48.40
2024-01-11T05:01:56.222Z,41.97
2024-01-11T05:04:24.935Z,42.50
2024-01-11T05:06:53.826Z,45.27
2024-01-11T05:09:22.614Z,43.70
2024-01-11T05:11:51.326Z,42.97
2024-01-11T05:14:20.184Z,40.10
2024-01-11T05:16:51.465Z,41.77
2024-01-11T05:19:20.426Z,40.00
2024-01-11T05:21:49.178Z,42.70
2024-01-11T05:24:17.924Z,39.90
2024-01-11T05:26:48.056Z,51.67
2024-01-11T05:29:16.833Z,43.93
2024-01-11T05:31:45.731Z,44.30
2024-01-11T05:34:16.181Z,40.10
2024-01-11T05:36:45.136Z,38.20
2024-01-11T05:39:13.779Z,38.07
2024-01-11T05:41:45.832Z,40.50
2024-01-11T05:44:14.635Z,40.00
2024-01-11T05:46:43.434Z,42.40
2024-01-11T05:49:12.253Z,40.70
2024-01-11T05:51:42.287Z,40.77
2024-01-11T05:54:11.016Z,40.87
2024-01-11T05:56:39.839Z,38.73
2024-01-11T05:59:08.676Z,40.90
2024-01-11T06:01:43.153Z,48.77
2024-01-11T06:04:12.038Z,41.37
2024-01-11T06:06:42.443Z,49.27
2024-01-11T06:09:11.263Z,38.00
2024-01-11T06:11:40.058Z,45.70
2024-01-11T06:14:09.383Z,37.23
2024-01-11T06:16:38.114Z,46.80
2024-01-11T06:19:08.432Z,45.23
2024-01-11T06:21:37.550Z,42.53
2024-01-11T06:24:07.745Z,43.57
2024-01-11T06:26:36.489Z,40.97
2024-01-11T06:29:05.357Z,37.83
2024-01-11T06:31:34.096Z,39.67
2024-01-11T06:34:02.922Z,48.93
2024-01-11T06:36:32.214Z,42.93
2024-01-11T06:39:00.945Z,37.80
2024-01-11T06:41:31.033Z,50.50
2024-01-11T06:44:01.883Z,44.50
2024-01-11T06:46:31.277Z,47.60
2024-01-11T06:49:00.214Z,41.90
2024-01-11T06:51:29.041Z,41.63
2024-01-11T06:53:57.731Z,48.00
2024-01-11T06:56:26.445Z,43.10
2024-01-11T06:58:57.016Z,37.53
2024-01-11T07:01:26.697Z,45.83
2024-01-11T07:03:55.489Z,42.20
2024-01-11T07:06:24.335Z,51.23
2024-01-11T07:08:53.345Z,50.28
2024-01-11T07:11:22.184Z,40.90
2024-01-11T07:13:50.942Z,46.70
2024-01-11T07:16:21.598Z,42.97
2024-01-11T07:18:50.591Z,46.20
2024-01-11T07:21:30.436Z,47.80
2024-01-11T07:23:59.921Z,47.57
2024-01-11T07:26:29.303Z,47.80
2024-01-11T07:28:58.203Z,43.73
2024-01-11T07:31:28.372Z,40.83
2024-01-11T07:33:57.193Z,40.57
2024-01-11T07:36:26.062Z,47.63
2024-01-11T07:38:55.245Z,46.80
2024-01-11T07:41:24.356Z,38.33
2024-01-11T07:43:54.772Z,52.37
2024-01-11T07:46:33.058Z,42.73
2024-01-11T07:49:09.373Z,46.37
2024-01-11T07:51:38.406Z,42.50
2024-01-11T07:54:07.312Z,46.70
2024-01-11T07:56:36.447Z,42.50
2024-01-11T07:59:05.604Z,40.23
2024-01-11T08:01:36.583Z,46.80
2024-01-11T08:04:05.947Z,36.47
2024-01-11T08:06:36.153Z,51.87
2024-01-11T08:09:06.215Z,45.27
2024-01-11T08:11:37.034Z,61.83
2024-01-11T08:14:07.820Z,52.13
2024-01-11T08:16:36.965Z,50.33
2024-01-11T08:19:05.852Z,44.93
2024-01-11T08:21:35.954Z,49.80
2024-01-11T08:24:05.048Z,47.27
2024-01-11T08:26:33.929Z,45.93
2024-01-11T08:29:03.414Z,54.57
2024-01-11T08:31:32.221Z,49.87
2024-01-11T08:34:01.191Z,43.57
2024-01-11T08:36:35.312Z,41.13
2024-01-11T08:39:06.781Z,40.17
2024-01-11T08:41:36.438Z,39.20
2024-01-11T08:44:06.727Z,42.07
2024-01-11T08:46:36.037Z,43.27
2024-01-11T08:49:05.408Z,49.17
2024-01-11T08:51:34.414Z,60.90
2024-01-11T08:54:03.207Z,45.10
2024-01-11T08:56:33.381Z,42.83
2024-01-11T08:59:02.266Z,40.13
2024-01-11T09:01:31.108Z,50.43
2024-01-11T09:04:00.351Z,49.93
2024-01-11T09:06:29.162Z,43.07
2024-01-11T09:08:58.097Z,46.43
2024-01-11T09:11:26.997Z,46.60
2024-01-11T09:13:58.213Z,43.60
2024-01-11T09:16:27.012Z,48.73
2024-01-11T09:18:55.894Z,53.73
2024-01-11T09:21:24.830Z,52.10
2024-01-11T09:23:53.607Z,40.33
2024-01-11T09:26:23.638Z,39.40
2024-01-11T09:28:52.466Z,49.83
2024-01-11T09:31:22.566Z,47.23
2024-01-11T09:33:51.681Z,45.53
2024-01-11T09:36:20.503Z,44.93
2024-01-11T09:38:49.819Z,53.03
2024-01-11T09:41:18.958Z,46.13
2024-01-11T09:43:48.088Z,55.93
2024-01-11T09:46:17.885Z,43.73
2024-01-11T09:48:49.299Z,45.77
2024-01-11T09:51:18.165Z,48.17
2024-01-11T09:53:47.190Z,51.03
2024-01-11T09:56:17.718Z,55.63
2024-01-11T09:58:49.883Z,57.83
2024-01-11T10:01:18.925Z,46.53
2024-01-11T10:03:49.155Z,45.17
2024-01-11T10:06:19.629Z,46.63
2024-01-11T10:08:48.440Z,48.57
2024-01-11T10:11:17.253Z,49.03
2024-01-11T10:13:46.226Z,46.33
2024-01-11T10:16:16.716Z,49.20
2024-01-11T10:18:45.953Z,48.10
2024-01-11T10:21:17.348Z,47.03
2024-01-11T10:23:46.149Z,41.33
2024-01-11T10:26:17.575Z,47.60
2024-01-11T10:28:47.221Z,44.57
2024-01-11T10:31:17.159Z,42.80
2024-01-11T10:33:47.396Z,46.90
2024-01-11T10:36:17.628Z,58.13
2024-01-11T10:38:48.053Z,46.77
2024-01-11T10:41:20.672Z,49.77
2024-01-11T10:43:50.902Z,42.93
2024-01-11T10:46:23.334Z,49.10
2024-01-11T10:48:56.394Z,42.10
2024-01-11T10:51:28.032Z,43.50
2024-01-11T10:53:57.970Z,51.77
2024-01-11T10:56:29.262Z,48.30
2024-01-11T10:58:59.124Z,55.53
2024-01-11T11:01:28.242Z,47.43
2024-01-11T11:03:57.720Z,43.33
2024-01-11T11:06:29.492Z,45.20
2024-01-11T11:09:00.223Z,47.73
2024-01-11T11:11:30.250Z,47.10
2024-01-11T11:13:59.841Z,45.87
2024-01-11T11:16:28.923Z,43.03
2024-01-11T11:18:58.492Z,48.07
2024-01-11T11:21:29.087Z,69.47
2024-01-11T11:23:58.488Z,51.07
2024-01-11T11:26:28.847Z,49.30
2024-01-11T11:28:57.624Z,45.03
2024-01-11T11:31:37.245Z,43.80
2024-01-11T11:34:07.190Z,43.03
2024-01-11T11:36:37.546Z,46.27
2024-01-11T11:39:06.333Z,47.00
2024-01-11T11:41:35.110Z,41.37
2024-01-11T11:44:04.461Z,47.77
2024-01-11T11:46:34.163Z,48.20
2024-01-11T11:49:02.978Z,46.20
2024-01-11T11:51:31.835Z,47.13
2024-01-11T11:54:02.247Z,44.43
2024-01-11T11:56:31.879Z,55.07
2024-01-11T11:59:01.189Z,55.77
2024-01-11T12:01:30.573Z,50.80
2024-01-11T12:03:59.565Z,45.93
2024-01-11T12:06:30.319Z,46.07
2024-01-11T12:08:59.201Z,49.73
2024-01-11T12:11:29.738Z,43.73
2024-01-11T12:13:59.600Z,47.83
2024-01-11T12:16:29.717Z,46.53
2024-01-11T12:18:58.678Z,47.67
2024-01-11T12:21:28.203Z,48.03
2024-01-11T12:23:57.124Z,53.93
2024-01-11T12:26:26.019Z,47.23
2024-01-11T12:28:56.332Z,45.40
2024-01-11T12:31:25.353Z,49.27
2024-01-11T12:33:55.314Z,63.83
2024-01-11T12:36:24.248Z,44.60
2024-01-11T12:38:53.905Z,41.83
2024-01-11T12:41:24.650Z,46.73
2024-01-11T12:43:54.489Z,39.50
2024-01-11T12:46:24.782Z,48.80
2024-01-11T12:48:53.898Z,41.67
2024-01-11T12:51:23.800Z,46.33
2024-01-11T12:53:54.679Z,43.53
2024-01-11T12:56:24.537Z,45.53
2024-01-11T12:58:53.625Z,46.27
2024-01-11T13:01:23.927Z,49.73
2024-01-11T13:03:53.517Z,46.67
2024-01-11T13:06:22.423Z,52.17
2024-01-11T13:08:51.610Z,50.67
2024-01-11T13:11:22.356Z,45.10
2024-01-11T13:13:51.225Z,45.50
2024-01-11T13:16:20.527Z,49.43
2024-01-11T13:18:50.765Z,40.43
2024-01-11T13:21:19.634Z,45.33
2024-01-11T13:23:48.483Z,52.50
2024-01-11T13:26:17.415Z,46.43
2024-01-11T13:28:46.185Z,47.20
2024-01-11T13:31:15.024Z,47.13
2024-01-11T13:33:43.892Z,50.37
2024-01-11T13:36:14.019Z,43.67
2024-01-11T13:38:43.204Z,45.93
2024-01-11T13:41:12.363Z,39.60
2024-01-11T13:43:41.080Z,48.30
2024-01-11T13:46:10.130Z,47.00
2024-01-11T13:48:39.042Z,42.97
2024-01-11T13:51:10.143Z,45.90
2024-01-11T13:53:40.398Z,44.70
2024-01-11T13:56:09.214Z,40.93
2024-01-11T13:58:38.349Z,41.57
2024-01-11T14:01:08.698Z,47.93
2024-01-11T14:03:37.558Z,42.50
2024-01-11T14:06:07.224Z,39.60
2024-01-11T14:08:36.464Z,41.80
2024-01-11T14:11:07.144Z,44.10
2024-01-11T14:13:36.018Z,43.53
2024-01-11T14:16:06.303Z,37.33
2024-01-11T14:18:35.365Z,42.97
2024-01-11T14:21:04.471Z,42.60
2024-01-11T14:23:33.499Z,43.80
2024-01-11T14:26:02.399Z,41.33
2024-01-11T14:28:32.551Z,49.17
2024-01-11T14:31:01.405Z,42.83
2024-01-11T14:33:30.493Z,44.90
2024-01-11T14:35:59.624Z,46.47
2024-01-11T14:38:28.696Z,44.17
2024-01-11T14:40:57.811Z,47.80
2024-01-11T14:43:26.640Z,43.50
2024-01-11T14:45:57.269Z,49.20
2024-01-11T14:48:26.210Z,47.03
2024-01-11T14:50:56.252Z,44.20
2024-01-11T14:53:25.226Z,44.27
2024-01-11T14:55:54.234Z,47.83
2024-01-11T14:58:23.126Z,45.40
2024-01-11T15:00:53.019Z,43.27
2024-01-11T15:03:23.128Z,48.13
2024-01-11T15:05:53.641Z,43.10
2024-01-11T15:08:22.453Z,41.13
2024-01-11T15:10:51.324Z,50.00
2024-01-11T15:13:20.091Z,45.07
2024-01-11T15:15:48.911Z,44.47
2024-01-11T15:18:17.886Z,48.00
2024-01-11T15:20:48.397Z,44.23
2024-01-11T15:23:18.289Z,42.30
2024-01-11T15:25:47.394Z,51.17
2024-01-11T15:28:16.238Z,47.43
2024-01-11T15:30:45.258Z,47.00
2024-01-11T15:33:15.921Z,42.27
2024-01-11T15:35:44.913Z,45.73
2024-01-11T15:38:15.396Z,46.63
2024-01-11T15:40:44.790Z,47.73
2024-01-11T15:43:13.609Z,58.43
2024-01-11T15:45:42.441Z,44.83
2024-01-11T15:48:11.387Z,42.47
2024-01-11T15:50:40.233Z,47.60
2024-01-11T15:53:09.524Z,43.40
2024-01-11T15:55:40.083Z,65.37
2024-01-11T15:58:10.025Z,41.90
2024-01-11T16:00:38.922Z,45.60
2024-01-11T16:03:08.038Z,50.87
2024-01-11T16:05:38.752Z,45.13
2024-01-11T16:08:09.495Z,43.97
2024-01-11T16:10:39.705Z,49.63
2024-01-11T16:13:08.536Z,45.83
2024-01-11T16:15:37.343Z,46.73
2024-01-11T16:18:06.898Z,43.90
2024-01-11T16:20:36.275Z,44.97
2024-01-11T16:23:05.475Z,46.20
2024-01-11T16:25:34.339Z,45.93
2024-01-11T16:28:04.780Z,50.73
2024-01-11T16:30:33.680Z,48.07
2024-01-11T16:33:02.593Z,49.60
2024-01-11T16:35:34.708Z,44.10
2024-01-11T16:38:07.687Z,43.40
2024-01-11T16:40:36.571Z,47.83
2024-01-11T16:43:06.824Z,50.37
2024-01-11T16:45:37.604Z,55.77
2024-01-11T16:48:11.202Z,53.37
2024-01-11T16:50:40.149Z,46.80
2024-01-11T16:53:08.873Z,56.27
2024-01-11T16:55:37.489Z,49.87
2024-01-11T16:58:07.495Z,60.57
2024-01-11T17:00:37.161Z,51.53
2024-01-11T17:03:06.805Z,51.00
2024-01-11T17:05:36.252Z,52.10
2024-01-11T17:08:06.027Z,47.73
2024-01-11T17:10:37.914Z,50.30
2024-01-11T17:13:08.242Z,49.13
2024-01-11T17:15:37.519Z,51.20
2024-01-11T17:18:06.751Z,49.10
2024-01-11T17:20:35.557Z,59.17
2024-01-11T17:23:04.625Z,58.13
2024-01-11T17:25:33.629Z,57.03
2024-01-11T17:28:02.444Z,53.47
2024-01-11T17:30:32.685Z,69.73
2024-01-11T17:33:01.709Z,50.90
2024-01-11T17:35:30.827Z,56.30
2024-01-11T17:37:59.679Z,56.83
2024-01-11T17:40:30.557Z,52.00
2024-01-11T17:43:00.981Z,48.40
2024-01-11T17:45:29.874Z,47.27
2024-01-11T17:48:00.132Z,57.13
2024-01-11T17:50:29.218Z,54.03
2024-01-11T17:52:58.049Z,46.50
2024-01-11T17:55:26.824Z,48.60
2024-01-11T17:57:55.673Z,61.37
2024-01-11T18:00:24.534Z,43.67
2024-01-11T18:02:53.898Z,58.00
2024-01-11T18:05:24.351Z,58.63
2024-01-11T18:07:56.696Z,53.60
2024-01-11T18:10:25.633Z,50.70
2024-01-11T18:12:54.564Z,48.90
2024-01-11T18:15:23.420Z,53.13
2024-01-11T18:17:52.332Z,52.50
2024-01-11T18:20:21.217Z,58.80
2024-01-11T18:22:52.188Z,60.87
2024-01-11T18:25:21.031Z,51.80
2024-01-11T18:27:49.827Z,48.33
2024-01-11T18:30:18.757Z,53.50
2024-01-11T18:32:48.079Z,47.13
2024-01-11T18:35:17.206Z,51.83
2024-01-11T18:37:46.075Z,51.60
2024-01-11T18:40:16.463Z,59.97
2024-01-11T18:42:45.241Z,50.47
2024-01-11T18:45:14.207Z,57.63
2024-01-11T18:47:43.115Z,50.23
2024-01-11T18:50:12.138Z,51.67
2024-01-11T18:52:42.761Z,48.67
2024-01-11T18:55:16.808Z,69.23
2024-01-11T18:57:47.950Z,54.70
2024-01-11T19:00:17.716Z,55.70
2024-01-11T19:02:49.404Z,56.73
2024-01-11T19:05:20.316Z,55.90
2024-01-11T19:07:49.262Z,51.40
2024-01-11T19:10:18.259Z,51.60
2024-01-11T19:12:48.686Z,47.80
2024-01-11T19:15:17.903Z,51.27
2024-01-11T19:17:47.151Z,70.70
2024-01-11T19:20:16.632Z,54.27
2024-01-11T19:22:45.608Z,63.30
2024-01-11T19:25:14.814Z,51.30
2024-01-11T19:27:43.634Z,50.20
2024-01-11T19:30:15.040Z,52.43
2024-01-11T19:32:44.505Z,56.30
2024-01-11T19:35:13.473Z,62.37
2024-01-11T19:37:42.321Z,55.07
2024-01-11T19:40:11.655Z,57.87
2024-01-11T19:42:40.399Z,54.67
2024-01-11T19:45:09.932Z,55.80
2024-01-11T19:47:40.546Z,54.93
2024-01-11T19:50:10.887Z,54.73
2024-01-11T19:52:39.758Z,54.93
2024-01-11T19:55:09.286Z,46.30
2024-01-11T19:57:38.100Z,54.77
2024-01-11T20:00:08.490Z,58.60
2024-01-11T20:02:38.226Z,58.90
2024-01-11T20:05:08.749Z,59.60
2024-01-11T20:07:37.532Z,53.90
2024-01-11T20:10:07.034Z,65.97
2024-01-11T20:12:35.838Z,63.60
2024-01-11T20:15:05.277Z,70.03
2024-01-11T20:17:34.725Z,54.97
2024-01-11T20:20:04.870Z,61.87
2024-01-11T20:22:35.490Z,68.97
2024-01-11T20:25:04.361Z,54.03
2024-01-11T20:27:33.142Z,64.43
2024-01-11T20:30:02.224Z,54.77
2024-01-11T20:32:31.322Z,59.23
2024-01-11T20:35:00.264Z,53.90
2024-01-11T20:37:29.028Z,62.53
2024-01-11T20:39:59.542Z,55.20
2024-01-11T20:42:28.374Z,56.00
2024-01-11T20:44:57.263Z,56.50
2024-01-11T20:47:27.243Z,56.83
2024-01-11T20:49:56.442Z,53.13
2024-01-11T20:52:25.224Z,55.00
2024-01-11T20:54:54.243Z,55.53
2024-01-11T20:57:24.584Z,57.13
2024-01-11T20:59:53.455Z,53.10
2024-01-11T21:02:22.382Z,51.90
2024-01-11T21:04:51.212Z,64.03
2024-01-11T21:07:19.976Z,61.67
2024-01-11T21:09:50.055Z,56.27
2024-01-11T21:12:18.947Z,65.60
2024-01-11T21:14:49.220Z,56.73
2024-01-11T21:17:19.301Z,54.70
2024-01-11T21:19:49.961Z,56.33
2024-01-11T21:22:20.605Z,58.50
2024-01-11T21:24:49.893Z,59.50
2024-01-11T21:27:18.734Z,59.20
2024-01-11T21:29:49.036Z,52.67
2024-01-11T21:32:17.906Z,61.90
2024-01-11T21:34:46.778Z,55.17
2024-01-11T21:37:15.554Z,62.50
2024-01-11T21:39:44.414Z,67.40
2024-01-11T21:42:13.221Z,61.03
2024-01-11T21:44:42.125Z,61.10
2024-01-11T21:47:12.445Z,57.43
2024-01-11T21:49:41.286Z,62.20
2024-01-11T21:52:10.105Z,70.47
2024-01-11T21:54:38.940Z,57.77
2024-01-11T21:57:07.783Z,62.67
2024-01-11T21:59:37.238Z,56.40
2024-01-11T22:02:06.035Z,61.97
2024-01-11T22:04:36.198Z,73.37
2024-01-11T22:07:05.479Z,58.77
2024-01-11T22:09:34.373Z,64.27
2024-01-11T22:12:03.322Z,64.53
2024-01-11T22:14:32.240Z,70.60
2024-01-11T22:17:01.115Z,61.37
2024-01-11T22:19:29.946Z,63.37
2024-01-11T22:22:00.180Z,62.50
2024-01-11T22:24:29.150Z,58.80
2024-01-11T22:26:57.975Z,74.50
2024-01-11T22:29:26.800Z,57.97
2024-01-11T22:31:55.858Z,67.77
2024-01-11T22:34:25.711Z,58.37
2024-01-11T22:36:54.615Z,57.33
2024-01-11T22:39:24.756Z,57.57
2024-01-11T22:41:53.499Z,62.37
2024-01-11T22:44:22.339Z,60.97
2024-01-11T22:46:51.251Z,59.97
2024-01-11T22:49:20.194Z,63.67
2024-01-11T22:51:49.052Z,62.83
2024-01-11T22:54:17.767Z,62.03
2024-01-11T22:56:47.927Z,61.00
2024-01-11T22:59:16.871Z,57.17
2024-01-11T23:01:45.631Z,61.87
2024-01-11T23:04:14.436Z,67.60
2024-01-11T23:06:43.342Z,61.30
2024-01-11T23:09:12.727Z,65.63
2024-01-11T23:11:41.680Z,56.60
2024-01-11T23:14:11.932Z,58.70
2024-01-11T23:16:40.934Z,73.97
2024-01-11T23:19:09.810Z,65.77
2024-01-11T23:21:38.734Z,67.57
2024-01-11T23:24:07.718Z,59.20
2024-01-11T23:26:36.541Z,64.70
2024-01-11T23:29:05.657Z,66.13
2024-01-11T23:31:35.832Z,64.30
2024-01-11T23:34:05.217Z,59.97
2024-01-11T23:36:34.107Z,62.47
2024-01-11T23:39:03.131Z,62.37
2024-01-11T23:41:31.958Z,56.80
2024-01-11T23:44:00.696Z,56.43
2024-01-11T23:46:29.510Z,64.67
2024-01-11T23:48:59.840Z,59.30
2024-01-11T23:51:28.705Z,64.20
2024-01-11T23:53:57.641Z,58.87
2024-01-11T23:56:26.391Z,65.20
2024-01-11T23:58:55.179Z,59.40
